createdAt,value
2022-09-20T00:07:27.377Z,0.68
2022-09-20T00:15:02.554Z,0.80
2022-09-20T00:22:37.759Z,0.80
2022-09-20T00:30:12.564Z,0.80
2022-09-20T00:37:47.688Z,0.80
2022-09-20T00:45:23.246Z,0.75
2022-09-20T00:53:03.376Z,0.75
2022-09-20T01:00:39.272Z,0.60
2022-09-20T01:08:14.963Z,0.60
2022-09-20T01:15:50.492Z,0.60
2022-09-20T01:23:46.273Z,0.65
2022-09-20T01:31:26.688Z,0.57
2022-09-20T01:39:08.624Z,0.80
2022-09-20T01:46:44.889Z,0.80
2022-09-20T01:55:03.870Z,0.68
2022-09-20T02:03:08.002Z,0.60
2022-09-20T02:11:07.398Z,0.80
2022-09-20T02:19:07.853Z,0.80
2022-09-20T02:26:50.315Z,0.68
2022-09-20T02:34:40.026Z,0.95
2022-09-20T02:42:19.665Z,0.70
2022-09-20T02:50:07.507Z,0.63
2022-09-20T02:57:49.759Z,1.02
2022-09-20T03:05:28.944Z,0.90
2022-09-20T03:13:16.158Z,0.68
2022-09-20T03:21:02.728Z,0.68
2022-09-20T03:28:54.308Z,1.25
2022-09-20T03:36:45.166Z,1.10
2022-09-20T03:44:49.367Z,0.80
2022-09-20T03:52:46.143Z,0.90
2022-09-20T04:00:25.630Z,1.45
2022-09-20T04:08:14.477Z,1.10
2022-09-20T04:16:03.058Z,1.10
2022-09-20T04:23:46.951Z,0.95
2022-09-20T04:31:34.346Z,1.25
2022-09-20T04:39:25.082Z,1.00
2022-09-20T04:47:23.192Z,0.90
2022-09-20T04:55:53.943Z,0.80
2022-09-20T05:03:56.759Z,0.90
2022-09-20T05:11:51.406Z,0.80
2022-09-20T05:19:39.613Z,1.13
2022-09-20T05:27:28.550Z,0.82
2022-09-20T05:35:13.851Z,0.88
2022-09-20T05:50:44.418Z,0.90
2022-09-20T05:58:36.298Z,0.93
2022-09-20T06:06:21.629Z,0.95
2022-09-20T06:21:47.712Z,1.10
2022-09-20T06:29:30.998Z,1.15
2022-09-20T06:37:37.791Z,2.00
2022-09-20T06:45:11.775Z,2.50
2022-09-20T06:52:47.514Z,3.20
2022-09-20T07:00:21.473Z,2.50
2022-09-20T07:07:59.650Z,2.28
2022-09-20T07:15:34.793Z,2.60
2022-09-20T07:23:10.088Z,2.78
2022-09-20T07:30:44.120Z,3.40
2022-09-20T07:38:19.282Z,3.20
2022-09-20T07:45:56.015Z,2.92
2022-09-20T07:53:31.450Z,4.18
2022-09-20T08:01:08.149Z,4.25
2022-09-20T08:08:44.621Z,3.80
2022-09-20T08:16:19.023Z,4.75
2022-09-20T08:23:54.877Z,4.80
2022-09-20T08:31:31.471Z,5.18
2022-09-20T08:47:09.806Z,4.82
2022-09-20T08:54:45.067Z,3.70
2022-09-20T09:02:22.773Z,4.25
2022-09-20T09:09:58.134Z,5.20
2022-09-20T09:17:32.159Z,5.75
2022-09-20T09:25:24.336Z,5.28
2022-09-20T09:33:19.387Z,6.38
2022-09-20T09:40:56.728Z,4.60
2022-09-20T09:48:31.628Z,4.88
2022-09-20T09:56:30.631Z,4.38
2022-09-20T10:04:14.970Z,4.63
2022-09-20T10:12:09.722Z,4.82
2022-09-20T10:19:59.941Z,4.50
2022-09-20T10:27:48.339Z,3.53
2022-09-20T10:35:30.367Z,3.25
2022-09-20T10:43:21.050Z,3.47
2022-09-20T10:51:01.291Z,3.42
2022-09-20T10:58:54.780Z,4.60
2022-09-20T11:06:41.170Z,3.80
2022-09-20T11:14:21.247Z,2.97
2022-09-20T11:22:02.147Z,2.47
2022-09-20T11:29:42.744Z,2.67
2022-09-20T11:37:19.302Z,2.40
2022-09-20T11:44:56.127Z,2.17
2022-09-20T11:52:47.511Z,2.25
2022-09-20T12:00:30.862Z,1.50
2022-09-20T12:08:08.202Z,1.90
2022-09-20T12:15:43.500Z,1.80
2022-09-20T12:24:09.553Z,1.83
2022-09-20T12:31:49.572Z,1.63
2022-09-20T12:39:29.897Z,1.77
2022-09-20T12:47:08.900Z,2.10
2022-09-20T12:54:53.292Z,1.58
2022-09-20T13:03:00.563Z,1.02
2022-09-20T13:10:40.345Z,0.60
2022-09-20T13:18:17.046Z,0.40
2022-09-20T13:25:51.826Z,0.13
2022-09-20T13:33:27.048Z,0.25
2022-09-20T13:41:06.266Z,1.30
2022-09-20T13:48:41.374Z,0.60
2022-09-20T13:56:22.603Z,0.60
2022-09-20T14:04:03.834Z,0.80
2022-09-20T14:11:38.805Z,0.80
2022-09-20T14:27:06.167Z,1.05
2022-09-20T14:34:42.511Z,0.40
2022-09-20T14:42:22.007Z,0.32
2022-09-20T14:49:58.077Z,0.28
2022-09-20T14:57:32.333Z,0.40
2022-09-20T15:05:17.254Z,0.50
2022-09-20T15:12:51.243Z,0.20
2022-09-20T15:20:26.245Z,0.45
2022-09-20T15:35:34.998Z,0.38
2022-09-20T15:43:11.091Z,0.40
2022-09-20T15:50:46.203Z,0.28
2022-09-20T15:58:19.854Z,0.45
2022-09-20T16:06:04.418Z,0.50
2022-09-20T16:13:38.778Z,0.80
2022-09-20T16:21:16.209Z,0.90
2022-09-20T16:28:50.148Z,0.73
2022-09-20T16:36:27.454Z,0.98
2022-09-20T16:44:01.553Z,1.20
2022-09-20T16:51:38.482Z,1.10
2022-09-20T16:59:13.389Z,1.73
2022-09-20T17:06:49.447Z,2.13
2022-09-20T17:14:24.989Z,2.38
2022-09-20T17:22:01.574Z,3.25
2022-09-20T17:29:35.271Z,3.00
2022-09-20T17:37:10.518Z,5.32
2022-09-20T17:44:47.919Z,4.38
2022-09-20T17:52:27.443Z,4.15
2022-09-20T18:00:02.074Z,5.72
2022-09-20T18:07:38.679Z,4.25
2022-09-20T18:15:12.638Z,3.95
2022-09-20T18:22:52.717Z,3.22
2022-09-20T18:30:26.462Z,3.17
2022-09-20T18:38:02.122Z,2.38
2022-09-20T18:45:35.802Z,2.65
2022-09-20T18:53:10.895Z,1.30
2022-09-20T19:00:45.072Z,1.80
2022-09-20T19:08:26.584Z,1.70
2022-09-20T19:16:21.592Z,1.70
2022-09-20T19:24:14.561Z,1.57
2022-09-20T19:31:50.170Z,1.77
2022-09-20T19:39:35.177Z,1.90
2022-09-20T19:47:27.026Z,2.28
2022-09-20T19:55:02.873Z,2.80
2022-09-20T20:02:38.276Z,1.92
2022-09-20T20:10:19.616Z,1.97
2022-09-20T20:18:02.667Z,2.33
2022-09-20T20:25:45.213Z,2.40
2022-09-20T20:33:19.153Z,3.00
2022-09-20T20:41:04.533Z,1.95
2022-09-20T20:48:38.495Z,2.20
2022-09-20T20:56:15.589Z,2.55
2022-09-20T21:03:51.697Z,2.50
2022-09-20T21:11:27.996Z,2.70
2022-09-20T21:19:02.351Z,2.38
2022-09-20T21:26:38.612Z,2.53
2022-09-20T21:34:15.545Z,2.67
2022-09-20T21:41:52.422Z,2.60
2022-09-20T21:49:26.203Z,3.10
2022-09-20T21:57:01.540Z,2.83
2022-09-20T22:04:35.256Z,2.78
2022-09-20T22:12:10.237Z,2.50
2022-09-20T22:19:44.726Z,2.38
2022-09-20T22:27:20.023Z,2.40
2022-09-20T22:34:53.723Z,2.10
2022-09-20T22:42:28.962Z,2.10
2022-09-20T22:50:02.667Z,2.20
2022-09-20T22:57:37.807Z,2.25
2022-09-20T23:05:11.560Z,2.42
2022-09-20T23:12:51.071Z,2.28
2022-09-20T23:20:24.796Z,2.47
2022-09-20T23:27:59.850Z,2.38
2022-09-20T23:35:34.159Z,3.78
2022-09-20T23:43:09.141Z,2.40
2022-09-20T23:58:19.508Z,2.47
